createdAt,value
2022-11-29T00:01:14.288Z,0.40
2022-11-29T00:03:41.349Z,0.37
2022-11-29T00:06:22.457Z,0.36
2022-11-29T00:08:49.668Z,0.34
2022-11-29T00:11:44.976Z,0.33
2022-11-29T00:14:15.378Z,0.31
2022-11-29T00:16:42.584Z,0.27
2022-11-29T00:19:14.425Z,0.27
2022-11-29T00:21:41.049Z,0.23
2022-11-29T00:24:07.985Z,0.24
2022-11-29T00:26:34.580Z,0.27
2022-11-29T00:29:01.131Z,0.26
2022-11-29T00:31:31.322Z,0.25
2022-11-29T00:33:59.816Z,0.25
2022-11-29T00:36:27.841Z,0.31
2022-11-29T00:38:55.493Z,0.29
2022-11-29T00:41:23.485Z,0.27
2022-11-29T00:43:50.310Z,0.27
2022-11-29T00:46:18.480Z,0.25
2022-11-29T00:48:45.499Z,0.26
2022-11-29T00:51:12.791Z,0.28
2022-11-29T00:53:39.427Z,0.23
2022-11-29T00:56:08.248Z,0.29
2022-11-29T00:58:36.183Z,0.25
2022-11-29T01:01:03.597Z,0.24
2022-11-29T01:03:32.142Z,0.23
2022-11-29T01:06:08.224Z,0.22
2022-11-29T01:08:34.955Z,0.23
2022-11-29T01:11:10.842Z,0.21
2022-11-29T01:13:37.650Z,0.18
2022-11-29T01:16:05.783Z,0.19
2022-11-29T01:18:33.165Z,0.18
2022-11-29T01:21:07.515Z,0.17
2022-11-29T01:23:35.461Z,0.18
2022-11-29T01:26:08.155Z,0.16
2022-11-29T01:28:35.596Z,0.16
2022-11-29T01:31:14.064Z,0.13
2022-11-29T01:33:41.284Z,0.14
2022-11-29T01:36:16.762Z,0.11
2022-11-29T01:38:46.229Z,0.14
2022-11-29T01:41:15.912Z,0.12
2022-11-29T01:44:20.949Z,0.14
2022-11-29T01:46:49.351Z,0.16
2022-11-29T01:49:32.476Z,0.12
2022-11-29T01:52:10.447Z,0.13
2022-11-29T01:54:43.884Z,0.13
2022-11-29T01:57:12.691Z,0.14
2022-11-29T01:59:45.965Z,0.14
2022-11-29T02:02:18.131Z,0.10
2022-11-29T02:04:46.366Z,0.11
2022-11-29T02:07:13.475Z,0.11
2022-11-29T02:09:41.347Z,0.06
2022-11-29T02:12:25.837Z,0.06
2022-11-29T02:14:58.756Z,0.03
2022-11-29T02:17:37.633Z,0.03
2022-11-29T02:20:25.767Z,0.06
2022-11-29T02:23:30.083Z,0.04
2022-11-29T02:26:18.679Z,0.03
2022-11-29T02:28:57.327Z,0.03
2022-11-29T02:31:35.915Z,0.07
2022-11-29T02:34:38.944Z,0.06
2022-11-29T02:37:44.346Z,0.05
2022-11-29T02:40:10.881Z,0.04
2022-11-29T02:42:55.815Z,0.04
2022-11-29T02:46:03.543Z,0.06
2022-11-29T02:48:51.137Z,0.09
2022-11-29T02:51:33.120Z,0.11
2022-11-29T02:54:49.061Z,0.11
2022-11-29T02:57:31.863Z,0.11
2022-11-29T03:00:25.088Z,0.13
2022-11-29T03:02:51.691Z,0.13
2022-11-29T03:05:29.622Z,0.15
2022-11-29T03:08:12.572Z,0.16
2022-11-29T03:10:50.382Z,0.16
2022-11-29T03:13:25.039Z,0.20
2022-11-29T03:15:59.885Z,0.22
2022-11-29T03:18:47.813Z,0.23
2022-11-29T03:21:34.706Z,0.26
2022-11-29T03:24:11.838Z,0.26
2022-11-29T03:26:49.535Z,0.29
2022-11-29T03:29:31.631Z,0.29
2022-11-29T03:32:07.632Z,0.30
2022-11-29T03:35:12.891Z,0.33
2022-11-29T03:38:24.261Z,0.34
2022-11-29T03:41:25.058Z,0.35
2022-11-29T03:44:20.814Z,0.37
2022-11-29T03:47:01.447Z,0.41
2022-11-29T03:50:04.667Z,0.42
2022-11-29T03:52:49.045Z,0.43
2022-11-29T03:55:57.597Z,0.44
2022-11-29T03:58:27.076Z,0.44
2022-11-29T04:01:16.339Z,0.44
2022-11-29T04:04:20.441Z,0.46
2022-11-29T04:06:57.172Z,0.48
2022-11-29T04:09:52.306Z,0.49
2022-11-29T04:12:47.971Z,0.51
2022-11-29T04:15:49.603Z,0.53
2022-11-29T04:19:04.242Z,0.53
2022-11-29T04:21:54.942Z,0.56
2022-11-29T04:24:38.323Z,0.58
2022-11-29T04:27:23.199Z,0.58
2022-11-29T04:30:13.457Z,0.60
2022-11-29T04:32:54.966Z,0.63
2022-11-29T04:36:01.534Z,0.65
2022-11-29T04:38:57.751Z,0.67
2022-11-29T04:42:04.616Z,0.70
2022-11-29T04:44:59.427Z,0.75
2022-11-29T04:47:56.524Z,0.73
2022-11-29T04:50:42.793Z,0.78
2022-11-29T04:53:31.157Z,0.77
2022-11-29T04:56:33.052Z,0.80
2022-11-29T04:59:10.185Z,0.80
2022-11-29T05:01:54.665Z,0.82
2022-11-29T05:04:28.230Z,0.81
2022-11-29T05:07:13.644Z,0.83
2022-11-29T05:09:55.295Z,0.86
2022-11-29T05:12:38.772Z,0.84
2022-11-29T05:15:28.120Z,0.83
2022-11-29T05:18:07.778Z,0.85
2022-11-29T05:20:52.089Z,0.83
2022-11-29T05:23:45.223Z,0.82
2022-11-29T05:26:31.641Z,0.81
2022-11-29T05:29:28.057Z,0.79
2022-11-29T05:32:33.093Z,0.78
2022-11-29T05:35:10.414Z,0.78
2022-11-29T05:37:44.342Z,0.77
2022-11-29T05:40:45.245Z,0.73
2022-11-29T05:43:21.325Z,0.76
2022-11-29T05:46:02.184Z,0.72
2022-11-29T05:48:37.549Z,0.70
2022-11-29T05:51:12.692Z,0.71
2022-11-29T05:54:04.167Z,0.72
2022-11-29T05:56:55.022Z,0.73
2022-11-29T05:59:27.343Z,0.76
2022-11-29T06:02:24.993Z,0.76
2022-11-29T06:05:13.707Z,0.74
2022-11-29T06:07:55.625Z,0.80
2022-11-29T06:10:30.456Z,0.80
2022-11-29T06:13:27.961Z,0.82
2022-11-29T06:16:12.017Z,0.87
2022-11-29T06:19:04.111Z,0.87
2022-11-29T06:21:40.856Z,0.89
2022-11-29T06:24:25.993Z,0.92
2022-11-29T06:27:17.657Z,0.92
2022-11-29T06:30:09.435Z,0.96
2022-11-29T06:33:01.788Z,0.99
2022-11-29T06:35:33.519Z,1.05
2022-11-29T06:38:09.069Z,1.07
2022-11-29T06:40:36.244Z,1.12
2022-11-29T06:43:03.191Z,1.13
2022-11-29T06:45:31.267Z,1.14
2022-11-29T06:48:05.243Z,1.17
2022-11-29T06:50:37.663Z,1.20
2022-11-29T06:53:49.099Z,1.24
2022-11-29T06:56:26.551Z,1.25
2022-11-29T06:59:06.268Z,1.30
2022-11-29T07:02:01.901Z,1.32
2022-11-29T07:05:09.703Z,1.36
2022-11-29T07:07:36.876Z,1.41
2022-11-29T07:10:13.471Z,1.43
2022-11-29T07:12:43.399Z,1.45
2022-11-29T07:15:14.873Z,1.48
2022-11-29T07:18:04.240Z,1.51
2022-11-29T07:20:54.662Z,1.56
2022-11-29T07:23:36.306Z,1.54
2022-11-29T07:26:31.793Z,1.59
2022-11-29T07:29:19.884Z,1.62
2022-11-29T07:32:16.654Z,1.67
2022-11-29T07:35:12.386Z,1.70
2022-11-29T07:37:58.108Z,1.72
2022-11-29T07:41:08.424Z,1.68
2022-11-29T07:43:59.569Z,1.72
2022-11-29T07:46:28.655Z,1.78
2022-11-29T07:48:55.429Z,1.81
2022-11-29T07:51:22.238Z,1.83
2022-11-29T07:53:48.929Z,1.86
2022-11-29T07:56:16.551Z,1.92
2022-11-29T07:58:44.267Z,1.99
2022-11-29T08:01:10.968Z,2.03
2022-11-29T08:03:37.825Z,2.05
2022-11-29T08:06:06.044Z,2.05
2022-11-29T08:08:37.719Z,2.14
2022-11-29T08:11:14.291Z,2.23
2022-11-29T08:13:40.936Z,2.28
2022-11-29T08:16:07.897Z,2.27
2022-11-29T08:18:37.909Z,2.25
2022-11-29T08:21:07.659Z,2.29
2022-11-29T08:23:34.310Z,2.30
2022-11-29T08:26:02.490Z,2.28
2022-11-29T08:28:29.329Z,2.30
2022-11-29T08:31:03.974Z,2.34
2022-11-29T08:33:30.870Z,2.42
2022-11-29T08:36:03.733Z,2.39
2022-11-29T08:38:30.472Z,2.38
2022-11-29T08:41:05.224Z,2.31
2022-11-29T08:43:32.706Z,2.37
2022-11-29T08:45:59.632Z,2.45
2022-11-29T08:48:26.723Z,2.51
2022-11-29T08:50:55.513Z,2.58
2022-11-29T08:53:46.480Z,2.62
2022-11-29T08:59:06.105Z,2.60
2022-11-29T09:01:32.903Z,2.65
2022-11-29T09:03:59.689Z,2.62
2022-11-29T09:06:32.071Z,2.60
2022-11-29T09:08:59.901Z,2.64
2022-11-29T09:11:29.443Z,2.65
2022-11-29T09:13:58.778Z,2.68
2022-11-29T09:16:27.752Z,2.68
2022-11-29T09:18:56.157Z,2.76
2022-11-29T09:21:26.260Z,2.79
2022-11-29T09:23:58.897Z,2.79
2022-11-29T09:26:32.906Z,2.78
2022-11-29T09:29:02.063Z,2.81
2022-11-29T09:31:30.382Z,2.86
2022-11-29T09:33:57.619Z,2.82
2022-11-29T09:36:28.790Z,2.79
2022-11-29T09:38:56.428Z,2.79
2022-11-29T09:41:48.335Z,2.93
2022-11-29T09:44:54.230Z,2.99
2022-11-29T09:47:45.474Z,3.04
2022-11-29T09:50:34.697Z,2.95
2022-11-29T09:53:17.041Z,2.96
2022-11-29T09:55:56.284Z,3.01
2022-11-29T09:58:27.336Z,3.02
2022-11-29T10:01:02.821Z,2.90
2022-11-29T10:03:44.720Z,2.91
2022-11-29T10:06:19.389Z,2.80
2022-11-29T10:08:52.904Z,2.77
2022-11-29T10:11:29.954Z,2.80
2022-11-29T10:14:20.887Z,2.83
2022-11-29T10:16:58.207Z,2.91
2022-11-29T10:19:33.492Z,3.02
2022-11-29T10:22:39.088Z,3.02
2022-11-29T10:25:09.905Z,3.13
2022-11-29T10:27:40.519Z,3.21
2022-11-29T10:30:18.300Z,3.32
2022-11-29T10:32:48.700Z,3.46
2022-11-29T10:35:18.125Z,3.55
2022-11-29T10:38:01.396Z,3.69
2022-11-29T10:40:34.912Z,3.69
2022-11-29T10:43:02.466Z,3.69
2022-11-29T10:45:40.730Z,3.69
2022-11-29T10:48:14.383Z,3.68
2022-11-29T10:50:44.959Z,3.67
2022-11-29T10:53:15.195Z,3.60
2022-11-29T10:56:22.530Z,3.63
2022-11-29T10:59:19.018Z,3.68
2022-11-29T11:01:45.862Z,3.59
2022-11-29T11:04:44.566Z,3.56
2022-11-29T11:07:25.102Z,3.57
2022-11-29T11:09:56.779Z,3.54
2022-11-29T11:12:34.936Z,3.66
2022-11-29T11:15:29.312Z,3.74
2022-11-29T11:18:01.681Z,3.72
2022-11-29T11:20:30.784Z,3.71
2022-11-29T11:23:06.793Z,3.79
2022-11-29T11:25:42.155Z,3.89
2022-11-29T11:28:21.997Z,3.95
2022-11-29T11:30:59.299Z,4.01
2022-11-29T11:33:29.697Z,4.06
2022-11-29T11:36:04.328Z,4.06
2022-11-29T11:38:32.092Z,4.07
2022-11-29T11:41:50.997Z,4.03
2022-11-29T11:44:48.079Z,4.16
2022-11-29T11:47:21.685Z,4.16
2022-11-29T11:49:50.056Z,4.13
2022-11-29T11:52:32.948Z,4.07
2022-11-29T11:55:07.674Z,4.03
2022-11-29T11:57:35.481Z,4.03
2022-11-29T12:00:07.002Z,4.09
2022-11-29T12:02:40.583Z,4.17
2022-11-29T12:05:22.125Z,4.34
2022-11-29T12:08:09.825Z,4.42
2022-11-29T12:10:40.555Z,4.23
2022-11-29T12:13:17.616Z,4.32
2022-11-29T12:15:47.605Z,4.24
2022-11-29T12:18:17.896Z,4.19
2022-11-29T12:20:51.237Z,4.27
2022-11-29T12:23:30.654Z,4.29
2022-11-29T12:26:19.139Z,4.37
2022-11-29T12:28:58.930Z,4.44
2022-11-29T12:31:50.123Z,4.52
2022-11-29T12:34:45.794Z,4.53
2022-11-29T12:37:26.426Z,4.57
2022-11-29T12:40:32.025Z,4.57
2022-11-29T12:43:24.936Z,4.86
2022-11-29T12:46:31.296Z,4.98
2022-11-29T12:49:01.143Z,5.09
2022-11-29T12:52:19.106Z,5.04
2022-11-29T12:55:21.025Z,4.91
2022-11-29T12:58:06.101Z,4.87
2022-11-29T13:00:42.049Z,4.85
2022-11-29T13:03:40.466Z,4.75
2022-11-29T13:06:34.325Z,4.80
2022-11-29T13:09:03.410Z,4.80
2022-11-29T13:11:35.786Z,4.81
2022-11-29T13:14:44.130Z,4.72
2022-11-29T13:17:34.389Z,4.75
2022-11-29T13:20:25.627Z,4.61
2022-11-29T13:23:01.326Z,4.60
2022-11-29T13:25:35.951Z,4.59
2022-11-29T13:28:11.679Z,4.61
2022-11-29T13:30:39.790Z,4.63
2022-11-29T13:33:18.032Z,4.64
2022-11-29T13:35:56.733Z,4.63
2022-11-29T13:38:50.954Z,4.56
2022-11-29T13:41:29.558Z,4.50
2022-11-29T13:44:08.982Z,4.51
2022-11-29T13:46:41.475Z,4.52
2022-11-29T13:49:20.760Z,4.51
2022-11-29T13:51:47.891Z,4.47
2022-11-29T13:54:30.006Z,4.46
2022-11-29T13:57:08.087Z,4.40
2022-11-29T13:59:47.126Z,4.42
2022-11-29T14:02:30.455Z,4.44
2022-11-29T14:04:57.648Z,4.43
2022-11-29T14:07:24.356Z,4.40
2022-11-29T14:10:07.238Z,4.40
2022-11-29T14:12:56.893Z,4.39
2022-11-29T14:15:37.499Z,4.36
2022-11-29T14:18:09.370Z,4.32
2022-11-29T14:20:54.994Z,4.31
2022-11-29T14:23:36.648Z,4.29
2022-11-29T14:26:05.976Z,4.28
2022-11-29T14:28:39.441Z,4.27
2022-11-29T14:31:07.770Z,4.23
2022-11-29T14:34:07.230Z,4.25
2022-11-29T14:36:45.809Z,4.25
2022-11-29T14:39:38.553Z,4.26
2022-11-29T14:42:14.755Z,4.24
2022-11-29T14:44:47.298Z,4.24
2022-11-29T14:47:25.245Z,4.24
2022-11-29T14:49:54.223Z,4.23
2022-11-29T14:52:29.835Z,4.22
2022-11-29T14:55:01.041Z,4.22
2022-11-29T14:57:58.750Z,4.23
2022-11-29T15:00:28.449Z,4.22
2022-11-29T15:03:13.938Z,4.21
2022-11-29T15:05:45.352Z,4.21
2022-11-29T15:08:20.543Z,4.19
2022-11-29T15:10:53.458Z,4.17
2022-11-29T15:13:48.588Z,4.15
2022-11-29T15:16:15.474Z,3.87
2022-11-29T15:19:08.749Z,3.65
2022-11-29T15:21:35.327Z,3.52
2022-11-29T15:24:09.391Z,3.24
2022-11-29T15:26:36.022Z,3.22
2022-11-29T15:29:18.723Z,3.10
2022-11-29T15:31:52.529Z,3.06
2022-11-29T15:34:45.298Z,3.12
2022-11-29T15:37:43.541Z,2.92
2022-11-29T15:40:18.789Z,2.82
2022-11-29T15:43:00.155Z,2.80
2022-11-29T15:45:31.458Z,2.74
2022-11-29T15:48:21.963Z,2.67
2022-11-29T15:51:11.087Z,2.61
2022-11-29T15:53:47.438Z,2.57
2022-11-29T15:56:16.692Z,2.52
2022-11-29T15:58:45.103Z,2.52
2022-11-29T16:01:22.275Z,2.48
2022-11-29T16:03:53.902Z,2.50
2022-11-29T16:06:23.478Z,2.46
2022-11-29T16:08:52.098Z,2.42
2022-11-29T16:11:22.784Z,2.38
2022-11-29T16:14:18.387Z,2.35
2022-11-29T16:16:47.556Z,2.32
2022-11-29T16:19:33.455Z,2.23
2022-11-29T16:22:14.616Z,2.28
2022-11-29T16:25:16.684Z,2.24
2022-11-29T16:27:43.799Z,2.23
2022-11-29T16:30:22.059Z,2.23
2022-11-29T16:33:18.025Z,2.26
2022-11-29T16:35:44.666Z,2.25
2022-11-29T16:38:22.813Z,2.25
2022-11-29T16:41:21.355Z,2.19
2022-11-29T16:43:57.642Z,2.22
2022-11-29T16:46:26.932Z,2.18
2022-11-29T16:48:55.402Z,2.07
2022-11-29T16:51:23.886Z,2.11
2022-11-29T16:54:20.082Z,2.10
2022-11-29T16:56:46.852Z,2.07
2022-11-29T16:59:20.978Z,2.08
2022-11-29T17:01:55.053Z,2.09
2022-11-29T17:04:23.421Z,2.07
2022-11-29T17:06:54.456Z,2.04
2022-11-29T17:09:27.335Z,2.02
2022-11-29T17:11:55.842Z,2.02
2022-11-29T17:14:22.585Z,1.99
2022-11-29T17:16:49.894Z,1.97
2022-11-29T17:19:16.996Z,1.93
2022-11-29T17:21:44.953Z,1.89
2022-11-29T17:24:13.986Z,1.88
2022-11-29T17:26:41.263Z,1.82
2022-11-29T17:29:09.651Z,1.77
2022-11-29T17:31:36.349Z,1.77
2022-11-29T17:34:03.688Z,1.71
2022-11-29T17:36:30.826Z,1.66
2022-11-29T17:38:59.680Z,1.67
2022-11-29T17:41:28.726Z,1.58
2022-11-29T17:43:56.707Z,1.59
2022-11-29T17:46:26.572Z,1.55
2022-11-29T17:48:55.012Z,1.50
2022-11-29T17:51:50.636Z,1.48
2022-11-29T17:54:11.213Z,1.42
2022-11-29T17:56:38.031Z,1.41
2022-11-29T17:59:08.236Z,1.34
2022-11-29T18:01:36.317Z,1.32
2022-11-29T18:04:06.523Z,1.31
2022-11-29T18:06:39.953Z,1.24
2022-11-29T18:09:09.783Z,1.20
2022-11-29T18:11:47.973Z,1.15
2022-11-29T18:14:29.079Z,1.17
2022-11-29T18:16:55.757Z,1.11
2022-11-29T18:19:23.501Z,1.14
2022-11-29T18:21:51.361Z,1.12
2022-11-29T18:24:18.410Z,1.09
2022-11-29T18:26:45.486Z,1.08
2022-11-29T18:29:12.415Z,1.05
2022-11-29T18:31:43.057Z,1.00
2022-11-29T18:34:12.626Z,0.99
2022-11-29T18:36:48.993Z,0.94
2022-11-29T18:39:19.601Z,0.90
2022-11-29T18:41:50.616Z,0.83
2022-11-29T18:44:21.678Z,0.81
2022-11-29T18:46:49.707Z,0.79
2022-11-29T18:49:18.271Z,0.75
2022-11-29T18:51:46.851Z,0.71
2022-11-29T18:54:16.891Z,0.65
2022-11-29T18:56:46.283Z,0.62
2022-11-29T18:59:18.054Z,0.57
2022-11-29T19:01:47.652Z,0.55
2022-11-29T19:04:20.038Z,0.54
2022-11-29T19:06:47.468Z,0.49
2022-11-29T19:09:21.502Z,0.45
2022-11-29T19:11:54.561Z,0.46
2022-11-29T19:14:22.414Z,0.43
2022-11-29T19:16:50.116Z,0.41
2022-11-29T19:21:59.875Z,0.33
2022-11-29T19:24:26.620Z,0.32
2022-11-29T19:26:55.896Z,0.25
2022-11-29T19:29:23.379Z,0.22
2022-11-29T19:31:50.547Z,0.17
2022-11-29T19:34:17.198Z,0.15
2022-11-29T19:36:44.905Z,0.11
2022-11-29T19:39:14.612Z,0.07
2022-11-29T19:41:43.607Z,0.01
2022-11-29T19:44:10.683Z,-0.08
2022-11-29T19:46:43.679Z,-0.17
2022-11-29T19:49:13.130Z,-0.22
2022-11-29T19:51:39.858Z,-0.31
2022-11-29T19:54:09.416Z,-0.41
2022-11-29T19:56:36.226Z,-0.47
2022-11-29T19:59:02.931Z,-0.52
2022-11-29T20:01:40.096Z,-0.60
2022-11-29T20:04:08.141Z,-0.63
2022-11-29T20:06:34.766Z,-0.70
2022-11-29T20:09:02.293Z,-0.79
2022-11-29T20:11:29.617Z,-0.83
2022-11-29T20:14:01.414Z,-0.83
2022-11-29T20:16:29.715Z,-0.86
2022-11-29T20:18:57.963Z,-0.85
2022-11-29T20:21:34.004Z,-0.91
2022-11-29T20:24:10.401Z,-0.98
2022-11-29T20:26:39.489Z,-1.00
2022-11-29T20:29:08.421Z,-1.05
2022-11-29T20:31:37.303Z,-1.12
2022-11-29T20:34:04.520Z,-1.18
2022-11-29T20:36:58.011Z,-1.27
2022-11-29T20:39:52.333Z,-1.20
2022-11-29T20:42:44.513Z,-1.30
2022-11-29T20:45:13.637Z,-1.32
2022-11-29T20:59:17.498Z,-1.55
2022-11-29T21:01:44.118Z,-1.56
2022-11-29T21:04:10.766Z,-1.60
2022-11-29T21:06:38.974Z,-1.61
2022-11-29T21:09:06.102Z,-1.66
2022-11-29T21:11:33.049Z,-1.72
2022-11-29T21:14:04.399Z,-1.74
2022-11-29T21:16:31.892Z,-1.76
2022-11-29T21:19:01.254Z,-1.77
2022-11-29T21:21:30.840Z,-1.85
2022-11-29T21:24:30.944Z,-1.86
2022-11-29T21:26:57.777Z,-1.84
2022-11-29T21:29:24.768Z,-1.87
2022-11-29T21:31:54.048Z,-1.87
2022-11-29T21:34:21.616Z,-1.89
2022-11-29T21:36:59.812Z,-1.89
2022-11-29T21:39:33.989Z,-1.93
2022-11-29T21:42:00.622Z,-1.97
2022-11-29T21:44:27.191Z,-1.92
2022-11-29T21:46:53.858Z,-1.87
2022-11-29T21:49:20.673Z,-1.85
2022-11-29T21:51:47.315Z,-1.90
2022-11-29T21:54:13.929Z,-1.89
2022-11-29T21:56:40.583Z,-1.93
2022-11-29T21:59:07.308Z,-1.96
2022-11-29T22:01:34.083Z,-1.99
2022-11-29T22:04:01.085Z,-2.01
2022-11-29T22:06:29.769Z,-2.00
2022-11-29T22:08:57.048Z,-2.01
2022-11-29T22:11:36.476Z,-1.91
2022-11-29T22:14:15.441Z,-1.92
2022-11-29T22:16:51.351Z,-1.92
2022-11-29T22:19:20.660Z,-1.92
2022-11-29T22:21:51.437Z,-1.93
2022-11-29T22:24:20.172Z,-1.91
2022-11-29T22:26:49.844Z,-1.96
2022-11-29T22:29:17.190Z,-1.98
2022-11-29T22:31:45.974Z,-1.97
2022-11-29T22:34:14.300Z,-1.97
2022-11-29T22:36:41.813Z,-1.98
2022-11-29T22:39:09.436Z,-2.01
2022-11-29T22:41:37.549Z,-1.99
2022-11-29T22:44:05.110Z,-2.02
2022-11-29T22:46:32.314Z,-2.00
2022-11-29T22:49:00.683Z,-1.98
2022-11-29T22:51:35.928Z,-2.01
2022-11-29T22:54:06.506Z,-2.03
2022-11-29T22:56:36.080Z,-2.02
2022-11-29T22:59:02.982Z,-2.03
2022-11-29T23:01:31.678Z,-2.04
2022-11-29T23:04:00.149Z,-2.04
2022-11-29T23:06:32.512Z,-2.06
2022-11-29T23:09:03.877Z,-2.03
2022-11-29T23:11:31.134Z,-2.05
2022-11-29T23:13:57.759Z,-2.08
2022-11-29T23:16:27.225Z,-2.07
2022-11-29T23:18:55.541Z,-2.05
2022-11-29T23:21:24.728Z,-2.08
2022-11-29T23:23:56.286Z,-2.08
2022-11-29T23:26:36.601Z,-2.10
2022-11-29T23:29:05.148Z,-2.12
2022-11-29T23:31:32.171Z,-2.13
2022-11-29T23:33:58.824Z,-2.15
2022-11-29T23:36:25.834Z,-2.17
2022-11-29T23:38:52.616Z,-2.18
2022-11-29T23:41:20.400Z,-2.17
2022-11-29T23:43:46.976Z,-2.23
2022-11-29T23:46:16.786Z,-2.23
2022-11-29T23:48:46.305Z,-2.25
2022-11-29T23:51:13.629Z,-2.25
2022-11-29T23:53:40.652Z,-2.28
2022-11-29T23:56:13.207Z,-2.29
2022-11-29T23:58:39.960Z,-2.31
